Washington, DC (20088)

8:39 AM EST on February 14, 2016 (GMT -0500)
Brightwood | | Change Station
CLOSE
Current Station
Personal Weather Station
Location: Washington, DC
Elevation: 279 ft
Nearby Weather Stations
Active Advisory: Winter Weather Statement

Elev 279 ft 38.97 °N, 77.03 °W | Updated 2 seconds ago

Clear
Clear
14.9 °F
Feels Like 15 °F
N
1.8
Wind Variable Wind from NNE
Gusts 2.5 mph

Today
High -- | Low -- °F
--% Chance of Precip.
Yesterday
High -- | Low -- °F
Precip. -- in
Pressure 30.58 in
Visibility 10.0 miles
Clouds Clear
Windchill 15 °F
Dew Point -11 °F
Humidity 30%
Rainfall 0.00 in
Snow Depth Not available.
7:01 AM 5:43 PM
Waxing Crescent, 42% visible
METAR KCGS 141325Z AUTO 28007KT 10SM CLR M08/M18 A3058 RMK AO1
Pressure 30.58 in
Visibility 10.0 miles
Clouds Clear
Windchill 15 °F
Dew Point -11 °F
Humidity 30%
Rainfall 0.00 in
Snow Depth Not available.
7:01 AM 5:43 PM
Waxing Crescent, 42% visible
METAR KCGS 141325Z AUTO 28007KT 10SM CLR M08/M18 A3058 RMK AO1

10-Day Weather Forecast

Almanac

Astronomy

Feb. 14, 2016 Rise Set
Actual Time
Civil Twilight
Nautical Twilight
Astronomical Twilight
Moon
Length of Visible Light
Length of Day
Tomorrow will be .
, % of the Moon is Illuminated

Today's Extremes

State Highs State Lows

Community

WunderPhotos

Upload Photos

1,892,790 photos uploaded!

WunderBlog® & News

Nearby

Air Quality

  Air Quality AQ Index Pollutant
Not available.

Snow Depth

Station Depth Elevation

Earthquake Activity

City Distance Mag. Time & Date
Minimum magnitude displayed is 2.5.

Coastal Water Temperatures

Place Temperature

Stations

Nearby Weather Stations

Station Location Temp. Windchill Dew Point Humidity Wind Precip. Elev Updated Type
                   

Watches & Warnings

Winter Weather Statement
Issued: 8:27 AM EST Feb. 14, 2016 – National Weather Service

... Wind Chill Advisory is cancelled...

The National Weather Service in Baltimore MD/Washington has
cancelled the Wind Chill Advisory.